Potomac — WBF7534 — position and weather

sailwx.info

Track history (hours):
 
Tides and Currents Weather Stations Pressure Air Temp Water Temp Dewpoint Dewpoint Depression Visibility Wind Speed Wind Dir Waves Ship Positions

Potomac

Owner: POTOMAC ASSOCIATION, OAKLAND, CA. More information available from US FCC via Universal Licensing System and Coast Guard Vessel Documentation Center.

Last reported at 2016-Apr-28 20:33 UTC. Time now 2016-Apr-29 14:00 UTC.
Position N 37°48' W 122°17'.

Length 51 m; draft 3.1 m.

MMSI: 367166810.

Date/timePositionNaut miles runAvg speedWind from/ knotsBaromVisibWave heightAir tempDewpointWater temp
2016-Apr-28 20:33N 37°48' W 122°17'1 0.7
2016-Apr-28 19:33N 37°48' W 122°18'1 0.7
2016-Apr-28 18:33N 37°48' W 122°17'0 0.0
2016-Apr-28 17:33N 37°48' W 122°17'0 0.0
2016-Apr-28 16:33N 37°48' W 122°17'  
2016-Apr-24 20:33N 37°48' W 122°17'8 7.9
2016-Apr-24 19:34N 37°49' W 122°27'1 0.5
2016-Apr-24 18:33N 37°49' W 122°27'8 7.8
2016-Apr-24 17:31N 37°48' W 122°17'0 0.0
2016-Apr-24 16:31N 37°48' W 122°17'  
Track history (hours):
 
Tides and Currents Weather Stations Pressure Air Temp Water Temp Dewpoint Dewpoint Depression Visibility Wind Speed Wind Dir Waves Ship Positions

Potomac

Owner: POTOMAC ASSOCIATION, OAKLAND, CA. More information available from US FCC via Universal Licensing System and Coast Guard Vessel Documentation Center.

Last reported at 2016-Apr-28 20:33 UTC. Time now 2016-Apr-29 14:00 UTC.
Position N 37°48' W 122°17'.

Length 51 m; draft 3.1 m.

MMSI: 367166810.

Date/timePositionNaut miles runAvg speedWind from/ knotsBaromVisibWave heightAir tempDewpointWater temp
2016-Apr-28 20:33N 37°48' W 122°17'1 0.7
2016-Apr-28 19:33N 37°48' W 122°18'1 0.7
2016-Apr-28 18:33N 37°48' W 122°17'0 0.0
2016-Apr-28 17:33N 37°48' W 122°17'0 0.0
2016-Apr-28 16:33N 37°48' W 122°17'  
2016-Apr-24 20:33N 37°48' W 122°17'8 7.9
2016-Apr-24 19:34N 37°49' W 122°27'1 0.5
2016-Apr-24 18:33N 37°49' W 122°27'8 7.8
2016-Apr-24 17:31N 37°48' W 122°17'0 0.0
2016-Apr-24 16:31N 37°48' W 122°17'  

Dump ship's entire track history